Time;durP1;ratioP1;P1;durP2;ratioP2;P2;SDS_P1;SDS_P2;PMS_P1;PMS_P2;Temp;Humidity;BMP_temperature;BMP_pressure;BME280_temperature;BME280_humidity;BME280_pressure;Samples;Min_cycle;Max_cycle;Signal;HPM_P1;HPM_P2
2021/07/26 00:01:47;;;;;;;16.52;7.78;;;;;;;;;;5033903;28;20032;-68
2021/07/26 00:04:12;;;;;;;14.65;7.45;;;;;;;;;;5033186;28;20075;-71
2021/07/26 00:06:39;;;;;;;10.18;7.63;;;;;;;;;;5033727;28;20018;-69
2021/07/26 00:09:04;;;;;;;10.18;7.68;;;;;;;;;;5033790;28;20140;-69
2021/07/26 00:11:31;;;;;;;11.77;7.60;;;;;;;;;;5033732;28;20100;-69
2021/07/26 00:13:57;;;;;;;11.88;8.55;;;;;;;;;;5033527;28;20025;-69
2021/07/26 00:16:22;;;;;;;15.63;9.07;;;;;;;;;;5032600;28;20020;-68
2021/07/26 00:18:48;;;;;;;13.27;8.52;;;;;;;;;;5033178;28;20079;-67
2021/07/26 00:21:14;;;;;;;16.80;8.35;;;;;;;;;;5033538;28;20083;-67
2021/07/26 00:23:40;;;;;;;9.52;7.43;;;;;;;;;;5033663;28;20117;-66
2021/07/26 00:26:06;;;;;;;13.43;8.27;;;;;;;;;;5033050;28;20108;-71
2021/07/26 00:28:32;;;;;;;16.30;7.95;;;;;;;;;;5033745;28;20018;-71
2021/07/26 00:30:58;;;;;;;14.93;7.63;;;;;;;;;;5033184;28;20022;-67
2021/07/26 00:33:52;;;;;;;14.18;8.13;;;;;;;;;;5033011;28;20509;-68
2021/07/26 00:36:18;;;;;;;10.75;7.68;;;;;;;;;;5014844;28;20029;-67
2021/07/26 00:38:44;;;;;;;11.77;7.88;;;;;;;;;;5033152;28;20017;-67
2021/07/26 00:41:10;;;;;;;14.05;7.47;;;;;;;;;;5032946;28;20080;-70
2021/07/26 00:43:37;;;;;;;11.45;7.60;;;;;;;;;;5015547;28;20025;-69
2021/07/26 00:46:03;;;;;;;10.38;8.07;;;;;;;;;;5032402;28;20014;-67
2021/07/26 00:48:28;;;;;;;14.30;7.65;;;;;;;;;;5032820;28;20018;-69
2021/07/26 00:50:54;;;;;;;13.50;7.53;;;;;;;;;;5033065;28;20022;-70
2021/07/26 00:53:20;;;;;;;16.63;7.15;;;;;;;;;;5032943;28;20030;-69
2021/07/26 00:55:46;;;;;;;12.98;7.78;;;;;;;;;;5032694;28;20022;-66
2021/07/26 00:58:11;;;;;;;13.20;7.75;;;;;;;;;;5032460;28;20021;-68
2021/07/26 01:00:37;;;;;;;11.10;7.40;;;;;;;;;;5032702;28;20513;-67
2021/07/26 01:03:02;;;;;;;15.27;6.78;;;;;;;;;;5032741;28;20018;-68
2021/07/26 01:05:28;;;;;;;11.18;7.25;;;;;;;;;;5032442;28;20534;-66
2021/07/26 01:07:54;;;;;;;13.95;7.10;;;;;;;;;;5015075;28;20021;-70
2021/07/26 01:10:21;;;;;;;12.40;8.25;;;;;;;;;;5032503;28;20013;-72
2021/07/26 01:12:46;;;;;;;13.20;7.75;;;;;;;;;;5032416;28;20482;-69
2021/07/26 01:15:13;;;;;;;11.00;7.70;;;;;;;;;;5028331;28;20079;-69
2021/07/26 01:18:01;;;;;;;13.05;7.50;;;;;;;;;;4995243;28;20022;-67
2021/07/26 01:20:27;;;;;;;11.43;7.50;;;;;;;;;;4994317;28;20022;-67
2021/07/26 01:22:53;;;;;;;14.80;7.50;;;;;;;;;;5012583;28;20371;-66
2021/07/26 01:25:19;;;;;;;9.05;7.18;;;;;;;;;;4995174;28;20029;-69
2021/07/26 01:27:45;;;;;;;10.32;7.65;;;;;;;;;;5012209;28;20471;-66
2021/07/26 01:30:10;;;;;;;10.68;7.35;;;;;;;;;;5012409;28;20028;-66
2021/07/26 01:32:36;;;;;;;10.80;7.43;;;;;;;;;;5012681;28;20064;-68
2021/07/26 01:35:02;;;;;;;13.82;8.15;;;;;;;;;;5012251;28;20104;-72
2021/07/26 01:37:28;;;;;;;10.65;7.28;;;;;;;;;;5012748;28;20107;-67
2021/07/26 01:39:55;;;;;;;11.00;7.18;;;;;;;;;;5011986;28;20057;-70
2021/07/26 01:42:21;;;;;;;11.85;7.55;;;;;;;;;;5012462;28;20021;-69
2021/07/26 01:44:46;;;;;;;10.48;6.57;;;;;;;;;;4994647;28;20497;-68
2021/07/26 01:47:13;;;;;;;13.27;7.32;;;;;;;;;;5012401;28;20018;-69
2021/07/26 01:49:48;;;;;;;14.57;7.35;;;;;;;;;;5011921;28;20049;-69
2021/07/26 01:52:15;;;;;;;9.95;6.78;;;;;;;;;;5012047;28;20030;-71
2021/07/26 01:54:41;;;;;;;10.82;7.47;;;;;;;;;;4994328;28;20084;-67
2021/07/26 01:57:07;;;;;;;9.55;7.18;;;;;;;;;;5011996;28;20430;-70
2021/07/26 01:59:33;;;;;;;12.02;7.18;;;;;;;;;;5012493;28;20018;-68
2021/07/26 02:01:59;;;;;;;9.80;6.45;;;;;;;;;;5012145;28;20368;-67
2021/07/26 02:04:24;;;;;;;15.60;7.78;;;;;;;;;;5011995;28;20055;-70
2021/07/26 02:06:50;;;;;;;14.10;7.20;;;;;;;;;;5012108;28;20018;-69
2021/07/26 02:09:16;;;;;;;14.98;7.35;;;;;;;;;;5012334;28;20172;-70
2021/07/26 02:11:42;;;;;;;13.48;7.70;;;;;;;;;;5011959;28;20076;-72
2021/07/26 02:14:10;;;;;;;9.75;7.13;;;;;;;;;;5012184;28;20120;-71
2021/07/26 02:16:37;;;;;;;9.57;6.40;;;;;;;;;;5012426;28;20018;-67
2021/07/26 02:19:04;;;;;;;9.18;6.50;;;;;;;;;;5012025;28;20080;-70
2021/07/26 02:21:30;;;;;;;9.20;7.03;;;;;;;;;;5012014;28;20404;-66
2021/07/26 02:23:57;;;;;;;10.90;6.60;;;;;;;;;;5012019;28;20022;-67
2021/07/26 02:26:22;;;;;;;11.35;6.63;;;;;;;;;;5011128;28;20029;-70
2021/07/26 02:28:48;;;;;;;11.50;6.43;;;;;;;;;;5012038;28;20022;-68
2021/07/26 02:31:13;;;;;;;11.68;6.88;;;;;;;;;;5012017;28;20018;-70
2021/07/26 02:33:39;;;;;;;9.88;6.47;;;;;;;;;;5012067;28;20037;-68
2021/07/26 02:36:05;;;;;;;13.10;6.72;;;;;;;;;;5011292;28;20479;-70
2021/07/26 02:38:31;;;;;;;13.35;7.22;;;;;;;;;;5011601;28;20113;-69
2021/07/26 02:40:57;;;;;;;11.38;6.75;;;;;;;;;;5011493;28;20141;-70
2021/07/26 02:43:23;;;;;;;10.93;6.07;;;;;;;;;;5012012;28;20534;-66
2021/07/26 02:45:49;;;;;;;11.82;6.80;;;;;;;;;;5011483;28;20022;-67
2021/07/26 02:48:15;;;;;;;14.85;8.63;;;;;;;;;;5011543;28;20026;-69
2021/07/26 02:50:41;;;;;;;15.75;7.22;;;;;;;;;;5011912;28;20021;-66
2021/07/26 02:53:07;;;;;;;10.70;7.20;;;;;;;;;;5011559;28;20030;-69
2021/07/26 02:55:33;;;;;;;11.57;7.30;;;;;;;;;;5011017;28;20076;-67
2021/07/26 02:57:59;;;;;;;10.38;7.38;;;;;;;;;;5011755;28;20471;-71
2021/07/26 03:00:25;;;;;;;11.13;6.35;;;;;;;;;;4995974;28;20025;-70
2021/07/26 03:02:51;;;;;;;8.82;6.90;;;;;;;;;;4997802;28;20422;-70
2021/07/26 03:05:17;;;;;;;9.88;7.22;;;;;;;;;;5014780;28;20105;-69
2021/07/26 03:07:43;;;;;;;11.48;6.90;;;;;;;;;;5015149;28;20075;-68
2021/07/26 03:10:10;;;;;;;12.30;6.80;;;;;;;;;;5014682;28;20018;-67
2021/07/26 03:12:35;;;;;;;10.40;7.13;;;;;;;;;;5014959;28;20500;-67
2021/07/26 03:15:01;;;;;;;13.13;7.13;;;;;;;;;;5014252;28;20014;-69
2021/07/26 03:17:27;;;;;;;10.38;7.15;;;;;;;;;;5014906;28;20068;-67
2021/07/26 03:19:53;;;;;;;8.02;6.88;;;;;;;;;;5014858;28;20018;-71
2021/07/26 03:22:40;;;;;;;10.48;7.00;;;;;;;;;;5014647;28;20029;-68
2021/07/26 03:25:06;;;;;;;10.25;6.72;;;;;;;;;;5014268;28;20475;-68
2021/07/26 03:27:32;;;;;;;11.45;7.30;;;;;;;;;;5014682;28;20025;-70
2021/07/26 03:29:58;;;;;;;10.23;6.28;;;;;;;;;;5014567;28;20387;-69
2021/07/26 03:32:23;;;;;;;15.65;6.88;;;;;;;;;;5014511;28;20418;-71
2021/07/26 03:34:49;;;;;;;13.63;7.18;;;;;;;;;;5014241;28;20030;-69
2021/07/26 03:37:15;;;;;;;16.02;7.07;;;;;;;;;;5014195;28;20014;-67
2021/07/26 03:39:41;;;;;;;14.75;6.65;;;;;;;;;;5014203;28;20529;-68
2021/07/26 03:42:07;;;;;;;18.13;7.18;;;;;;;;;;5014623;28;20438;-66
2021/07/26 03:44:33;;;;;;;12.50;6.80;;;;;;;;;;5014466;28;20018;-70
2021/07/26 03:46:59;;;;;;;10.82;6.40;;;;;;;;;;5014177;28;20414;-70
2021/07/26 03:49:25;;;;;;;10.60;6.32;;;;;;;;;;5014667;28;20068;-68
2021/07/26 03:51:50;;;;;;;8.32;6.57;;;;;;;;;;5014206;28;20096;-70
2021/07/26 03:54:16;;;;;;;17.17;6.32;;;;;;;;;;4995936;28;20499;-65
2021/07/26 03:56:41;;;;;;;12.60;6.25;;;;;;;;;;4996360;28;20025;-67
2021/07/26 03:59:06;;;;;;;16.73;5.68;;;;;;;;;;5014089;28;20010;-69
2021/07/26 04:01:32;;;;;;;16.40;8.50;;;;;;;;;;5014312;28;20105;-70
2021/07/26 04:03:58;;;;;;;12.80;6.95;;;;;;;;;;5013792;28;20112;-69
2021/07/26 04:06:25;;;;;;;11.73;6.20;;;;;;;;;;5013835;28;20053;-67
2021/07/26 04:08:51;;;;;;;10.35;6.28;;;;;;;;;;5013978;28;20482;-67
2021/07/26 04:13:53;;;;;;;10.65;5.90;;;;;;;;;;5013915;28;20398;-66
2021/07/26 04:16:19;;;;;;;15.07;7.07;;;;;;;;;;4995711;28;20115;-70
2021/07/26 04:18:49;;;;;;;13.88;6.03;;;;;;;;;;4996332;28;20110;-69
2021/07/26 04:21:15;;;;;;;9.57;6.35;;;;;;;;;;4996292;28;20144;-68
2021/07/26 04:23:41;;;;;;;9.88;5.55;;;;;;;;;;4996353;28;20453;-71
2021/07/26 04:26:07;;;;;;;12.90;6.00;;;;;;;;;;5012965;28;20049;-69
2021/07/26 04:28:32;;;;;;;9.88;5.82;;;;;;;;;;4996375;28;20057;-71
2021/07/26 04:30:59;;;;;;;9.25;5.82;;;;;;;;;;5013382;28;20427;-70
2021/07/26 04:33:25;;;;;;;8.30;5.93;;;;;;;;;;5013446;28;20049;-68
2021/07/26 04:35:51;;;;;;;8.40;5.53;;;;;;;;;;4995215;28;20033;-65
2021/07/26 04:38:16;;;;;;;11.60;5.00;;;;;;;;;;4995435;28;20018;-67
2021/07/26 04:40:42;;;;;;;13.60;6.30;;;;;;;;;;5013397;28;20080;-70
2021/07/26 04:43:08;;;;;;;10.35;5.47;;;;;;;;;;4995634;28;20022;-71
2021/07/26 04:45:34;;;;;;;6.80;5.30;;;;;;;;;;5013019;28;20018;-68
2021/07/26 04:48:00;;;;;;;15.90;6.00;;;;;;;;;;4979468;28;20092;-72
2021/07/26 04:50:26;;;;;;;11.43;5.53;;;;;;;;;;5013049;28;20022;-71
2021/07/26 04:52:51;;;;;;;14.30;5.90;;;;;;;;;;5013008;28;20014;-67
2021/07/26 04:55:18;;;;;;;20.15;5.70;;;;;;;;;;5012882;28;20798;-69
2021/07/26 04:57:44;;;;;;;11.45;5.68;;;;;;;;;;5013131;28;20498;-68
2021/07/26 05:00:09;;;;;;;12.15;5.63;;;;;;;;;;5012831;28;20021;-71
2021/07/26 05:02:35;;;;;;;15.30;6.07;;;;;;;;;;4995659;28;20022;-70
2021/07/26 05:05:01;;;;;;;13.10;6.10;;;;;;;;;;5012677;28;20021;-66
2021/07/26 05:07:27;;;;;;;10.20;5.82;;;;;;;;;;5012719;28;20145;-68
2021/07/26 05:09:53;;;;;;;7.75;5.43;;;;;;;;;;4995455;28;20478;-66
2021/07/26 05:12:19;;;;;;;14.88;5.97;;;;;;;;;;5012711;28;20112;-66
2021/07/26 05:14:47;;;;;;;12.98;5.63;;;;;;;;;;5012392;28;20121;-67
2021/07/26 05:17:12;;;;;;;12.40;5.38;;;;;;;;;;5012621;28;20018;-69
2021/07/26 05:19:39;;;;;;;9.60;5.43;;;;;;;;;;5012875;28;20439;-67
2021/07/26 05:22:05;;;;;;;14.25;5.72;;;;;;;;;;5012595;28;20076;-72
2021/07/26 05:24:32;;;;;;;9.63;5.18;;;;;;;;;;5011469;28;20491;-66
2021/07/26 05:27:01;;;;;;;10.43;5.75;;;;;;;;;;5012026;28;20050;-67
2021/07/26 05:29:27;;;;;;;;;;;;;;;;;;5013386;28;20025;-70
2021/07/26 05:31:53;;;;;;;13.43;5.47;;;;;;;;;;5012771;28;19991;-67
2021/07/26 05:34:18;;;;;;;8.52;4.93;;;;;;;;;;4994368;28;20551;-67
2021/07/26 05:36:44;;;;;;;10.55;5.00;;;;;;;;;;5011900;28;20096;-72
2021/07/26 05:39:09;;;;;;;12.68;5.70;;;;;;;;;;5011186;28;20079;-66
2021/07/26 05:41:35;;;;;;;13.10;5.35;;;;;;;;;;5012180;28;20033;-67
2021/07/26 05:44:00;;;;;;;12.75;5.63;;;;;;;;;;4999337;28;20041;-74
2021/07/26 05:46:25;;;;;;;13.10;5.43;;;;;;;;;;5008340;28;20475;-73
2021/07/26 05:48:51;;;;;;;9.38;5.53;;;;;;;;;;4968421;28;20043;-73
2021/07/26 05:51:16;;;;;;;16.83;5.97;;;;;;;;;;5007702;28;20105;-73
2021/07/26 05:53:42;;;;;;;10.82;5.80;;;;;;;;;;5006687;28;20026;-73
2021/07/26 05:56:10;;;;;;;13.30;5.57;;;;;;;;;;5008487;28;20067;-73
2021/07/26 05:58:41;;;;;;;13.40;5.45;;;;;;;;;;5003906;28;20053;-73
2021/07/26 06:03:41;;;;;;;14.02;5.68;;;;;;;;;;5004554;28;20036;-74
2021/07/26 06:06:08;;;;;;;19.60;5.78;;;;;;;;;;5009698;28;20421;-73
2021/07/26 06:08:33;;;;;;;12.70;5.90;;;;;;;;;;5001958;28;20567;-74
2021/07/26 06:11:00;;;;;;;17.60;5.88;;;;;;;;;;5008439;28;20101;-73
2021/07/26 06:13:25;;;;;;;7.50;5.28;;;;;;;;;;5010456;28;20037;-73
2021/07/26 06:15:51;;;;;;;23.63;6.78;;;;;;;;;;5004388;28;20582;-74
2021/07/26 06:18:16;;;;;;;12.30;5.82;;;;;;;;;;4993039;28;20033;-71
2021/07/26 06:20:41;;;;;;;15.13;5.78;;;;;;;;;;5010303;28;20491;-71
2021/07/26 06:23:07;;;;;;;8.55;5.28;;;;;;;;;;5002932;28;20068;-72
2021/07/26 06:25:32;;;;;;;11.10;5.43;;;;;;;;;;5009879;28;20026;-72
2021/07/26 06:27:58;;;;;;;11.57;5.60;;;;;;;;;;5010729;28;20014;-72
2021/07/26 06:30:23;;;;;;;11.63;5.72;;;;;;;;;;5010714;28;20097;-72
2021/07/26 06:32:53;;;;;;;9.90;5.47;;;;;;;;;;5009205;28;20040;-72
2021/07/26 06:35:18;;;;;;;16.05;5.65;;;;;;;;;;5011899;28;20010;-72
2021/07/26 06:37:43;;;;;;;9.68;5.93;;;;;;;;;;5015368;28;20549;-72
2021/07/26 06:40:10;;;;;;;10.40;5.95;;;;;;;;;;5013497;28;20758;-71
2021/07/26 06:42:52;;;;;;;7.25;5.63;;;;;;;;;;5014894;28;20069;-74
2021/07/26 06:45:20;;;;;;;6.88;5.32;;;;;;;;;;5012993;28;20106;-72
2021/07/26 06:47:58;;;;;;;15.80;6.10;;;;;;;;;;4995948;28;20018;-73
2021/07/26 06:50:23;;;;;;;12.30;5.82;;;;;;;;;;4994434;28;20137;-72
2021/07/26 06:53:13;;;;;;;10.00;5.95;;;;;;;;;;5012591;28;20070;-75
2021/07/26 06:55:41;;;;;;;11.38;6.35;;;;;;;;;;5013368;28;20489;-74
2021/07/26 06:58:07;;;;;;;11.00;5.50;;;;;;;;;;5014320;28;20116;-75
2021/07/26 07:00:33;;;;;;;16.92;6.15;;;;;;;;;;4988016;28;20110;-73
2021/07/26 07:02:58;;;;;;;11.27;5.80;;;;;;;;;;5009152;28;20411;-71
2021/07/26 07:05:24;;;;;;;8.27;5.72;;;;;;;;;;5014690;28;20105;-72
2021/07/26 07:07:49;;;;;;;21.23;6.72;;;;;;;;;;5008839;28;20479;-72
2021/07/26 07:10:15;;;;;;;15.27;6.28;;;;;;;;;;4988278;28;20109;-72
2021/07/26 07:12:42;;;;;;;14.95;6.78;;;;;;;;;;5012634;28;20018;-73
2021/07/26 07:15:07;;;;;;;12.40;6.70;;;;;;;;;;5010537;28;20390;-74
2021/07/26 07:17:33;;;;;;;10.00;6.15;;;;;;;;;;5013022;28;20479;-73
2021/07/26 07:19:58;;;;;;;10.30;5.95;;;;;;;;;;5013373;28;20010;-73
2021/07/26 07:22:24;;;;;;;15.57;6.55;;;;;;;;;;4994884;28;20032;-74
2021/07/26 07:24:49;;;;;;;10.45;6.43;;;;;;;;;;5024469;28;20492;-70
2021/07/26 07:27:14;;;;;;;11.63;6.13;;;;;;;;;;5033084;28;20021;-70
2021/07/26 07:29:40;;;;;;;12.88;6.53;;;;;;;;;;5014674;28;20033;-71
2021/07/26 07:32:06;;;;;;;10.05;6.05;;;;;;;;;;5012367;28;20021;-72
2021/07/26 07:34:31;;;;;;;10.77;5.55;;;;;;;;;;5013524;28;20033;-71
2021/07/26 07:36:58;;;;;;;16.98;7.28;;;;;;;;;;5012573;28;20478;-70
2021/07/26 07:39:25;;;;;;;10.85;5.90;;;;;;;;;;5011957;28;20022;-71
2021/07/26 07:41:50;;;;;;;8.82;6.18;;;;;;;;;;4983517;28;20037;-69
2021/07/26 07:44:16;;;;;;;10.80;5.68;;;;;;;;;;4977132;28;20076;-72
2021/07/26 07:46:41;;;;;;;10.63;6.55;;;;;;;;;;4993935;28;20022;-70
2021/07/26 07:49:08;;;;;;;10.82;6.47;;;;;;;;;;5003647;28;20022;-71
2021/07/26 07:51:33;;;;;;;20.60;6.93;;;;;;;;;;5000665;28;20029;-70
2021/07/26 07:54:00;;;;;;;14.02;6.75;;;;;;;;;;4994051;28;20260;-71
2021/07/26 07:56:34;;;;;;;11.27;6.28;;;;;;;;;;4994636;28;20080;-72
2021/07/26 07:59:07;;;;;;;10.05;6.47;;;;;;;;;;4998245;28;20026;-71
2021/07/26 08:01:32;;;;;;;15.98;6.47;;;;;;;;;;5001129;28;20079;-74
2021/07/26 08:04:03;;;;;;;13.43;6.68;;;;;;;;;;4974154;28;20026;-70
2021/07/26 08:06:29;;;;;;;11.15;6.25;;;;;;;;;;4984728;28;20875;-70
2021/07/26 08:08:54;;;;;;;14.32;6.68;;;;;;;;;;4991890;28;20022;-73
2021/07/26 08:11:33;;;;;;;9.38;6.80;;;;;;;;;;5001788;28;20080;-72
2021/07/26 08:14:06;;;;;;;9.77;6.55;;;;;;;;;;4991135;28;20030;-73
2021/07/26 08:16:37;;;;;;;13.57;7.18;;;;;;;;;;4989310;28;20029;-73
2021/07/26 08:19:02;;;;;;;12.18;7.07;;;;;;;;;;4994176;28;20129;-74
2021/07/26 08:21:28;;;;;;;9.60;6.63;;;;;;;;;;4995970;28;20023;-73
2021/07/26 08:23:53;;;;;;;9.75;6.80;;;;;;;;;;4991923;28;20057;-76
2021/07/26 08:26:20;;;;;;;10.43;6.80;;;;;;;;;;4995373;28;20403;-75
2021/07/26 08:28:45;;;;;;;10.25;6.88;;;;;;;;;;4995744;28;20022;-69
2021/07/26 08:31:11;;;;;;;19.13;6.70;;;;;;;;;;4997625;28;20379;-70
2021/07/26 08:33:36;;;;;;;13.13;7.22;;;;;;;;;;4985870;28;20034;-74
2021/07/26 08:36:01;;;;;;;13.63;6.80;;;;;;;;;;4975709;28;20472;-70
2021/07/26 08:38:27;;;;;;;16.13;7.93;;;;;;;;;;4995544;28;20033;-70
2021/07/26 08:40:52;;;;;;;9.15;6.90;;;;;;;;;;5006270;28;20061;-72
2021/07/26 08:43:18;;;;;;;10.27;7.55;;;;;;;;;;5012100;28;20105;-73
2021/07/26 08:45:45;;;;;;;9.77;6.68;;;;;;;;;;5009740;28;20018;-72
2021/07/26 08:48:10;;;;;;;13.23;7.53;;;;;;;;;;5011491;28;20025;-71
2021/07/26 08:50:37;;;;;;;10.32;7.60;;;;;;;;;;5012209;28;20526;-72
2021/07/26 08:53:04;;;;;;;10.35;7.63;;;;;;;;;;5010773;28;20076;-70
2021/07/26 08:55:32;;;;;;;14.95;7.03;;;;;;;;;;5011256;28;20020;-72
2021/07/26 08:57:58;;;;;;;18.08;7.15;;;;;;;;;;5012021;28;20466;-69
2021/07/26 09:00:24;;;;;;;16.20;6.88;;;;;;;;;;5009373;28;20028;-69
2021/07/26 09:02:50;;;;;;;8.43;6.60;;;;;;;;;;5012549;28;20036;-69
2021/07/26 09:05:15;;;;;;;12.80;6.82;;;;;;;;;;5010155;28;20026;-70
2021/07/26 09:07:42;;;;;;;8.23;6.53;;;;;;;;;;4991977;28;20058;-70
2021/07/26 09:10:15;;;;;;;7.18;6.32;;;;;;;;;;4994474;28;20030;-72
2021/07/26 09:12:41;;;;;;;9.65;6.22;;;;;;;;;;5012168;28;20486;-73
2021/07/26 09:15:23;;;;;;;13.32;7.22;;;;;;;;;;4992735;28;20034;-68
2021/07/26 09:17:48;;;;;;;13.05;7.00;;;;;;;;;;5003604;28;20030;-71
2021/07/26 09:20:15;;;;;;;12.25;6.43;;;;;;;;;;4993546;28;20026;-75
2021/07/26 09:22:46;;;;;;;13.75;7.57;;;;;;;;;;4993435;28;20034;-73
2021/07/26 09:25:31;;;;;;;10.57;6.50;;;;;;;;;;4989235;28;20105;-72
2021/07/26 09:27:58;;;;;;;14.65;7.78;;;;;;;;;;5010991;28;20021;-75
2021/07/26 09:30:24;;;;;;;10.65;7.20;;;;;;;;;;4971833;28;20558;-74
2021/07/26 09:32:50;;;;;;;14.80;7.25;;;;;;;;;;5005775;28;20026;-76
2021/07/26 09:35:16;;;;;;;11.88;6.97;;;;;;;;;;5011847;28;20045;-76
2021/07/26 09:37:42;;;;;;;9.52;6.70;;;;;;;;;;4994893;28;20497;-77
2021/07/26 09:40:21;;;;;;;12.63;7.00;;;;;;;;;;4994085;28;20056;-77
2021/07/26 09:42:48;;;;;;;10.25;7.15;;;;;;;;;;5012337;28;20018;-73
2021/07/26 09:45:26;;;;;;;10.88;6.85;;;;;;;;;;5011799;28;20022;-75
2021/07/26 09:48:04;;;;;;;14.52;7.32;;;;;;;;;;5012385;28;20474;-77
2021/07/26 09:50:33;;;;;;;13.55;7.07;;;;;;;;;;5012242;28;20108;-78
2021/07/26 09:53:05;;;;;;;12.27;7.05;;;;;;;;;;5010616;28;20082;-77
2021/07/26 09:55:30;;;;;;;7.95;7.13;;;;;;;;;;5011767;28;20041;-76
2021/07/26 09:58:03;;;;;;;13.18;7.20;;;;;;;;;;5012074;28;20060;-76
2021/07/26 10:00:30;;;;;;;9.88;6.85;;;;;;;;;;4994762;28;20423;-75
2021/07/26 10:02:56;;;;;;;9.70;7.32;;;;;;;;;;5012311;28;20022;-75
2021/07/26 10:05:29;;;;;;;9.80;7.38;;;;;;;;;;4994077;28;20045;-76
2021/07/26 10:07:54;;;;;;;12.80;7.25;;;;;;;;;;5012576;28;20022;-75
2021/07/26 10:10:20;;;;;;;13.07;7.15;;;;;;;;;;5014143;28;20030;-72
2021/07/26 10:12:48;;;;;;;13.50;7.28;;;;;;;;;;4998179;28;20021;-74
2021/07/26 10:15:13;;;;;;;16.88;6.88;;;;;;;;;;4997476;28;20034;-74
2021/07/26 10:17:39;;;;;;;13.57;7.78;;;;;;;;;;4999503;28;20745;-74
2021/07/26 10:20:06;;;;;;;9.20;6.85;;;;;;;;;;5023074;28;20049;-74
2021/07/26 10:22:32;;;;;;;16.35;7.60;;;;;;;;;;4994106;28;20116;-73
2021/07/26 10:25:00;;;;;;;10.25;6.78;;;;;;;;;;5012804;28;20420;-71
2021/07/26 10:27:31;;;;;;;13.43;7.25;;;;;;;;;;5014786;28;20030;-73
2021/07/26 10:29:57;;;;;;;11.43;7.20;;;;;;;;;;4997052;28;20518;-73
2021/07/26 10:32:31;;;;;;;15.07;7.10;;;;;;;;;;4977199;28;20026;-73
2021/07/26 10:34:57;;;;;;;17.92;7.05;;;;;;;;;;5013094;28;20065;-73
2021/07/26 10:37:42;;;;;;;8.23;6.68;;;;;;;;;;5012331;28;20021;-76
2021/07/26 10:40:25;;;;;;;16.75;7.10;;;;;;;;;;5010008;28;20053;-69
2021/07/26 10:42:52;;;;;;;13.82;7.15;;;;;;;;;;5013254;28;20025;-69
2021/07/26 10:45:36;;;;;;;10.45;6.95;;;;;;;;;;4996402;28;20382;-69
2021/07/26 10:48:21;;;;;;;9.82;6.78;;;;;;;;;;4996207;28;20101;-69
2021/07/26 10:50:48;;;;;;;13.18;7.25;;;;;;;;;;4994009;28;20029;-70
2021/07/26 10:53:23;;;;;;;12.25;7.05;;;;;;;;;;5015328;28;20467;-69
2021/07/26 10:56:08;;;;;;;10.98;7.10;;;;;;;;;;4997595;28;20025;-71
2021/07/26 10:58:57;;;;;;;13.60;6.68;;;;;;;;;;5015123;28;20097;-70
2021/07/26 11:01:29;;;;;;;16.98;6.88;;;;;;;;;;5013260;28;20109;-74
2021/07/26 11:03:56;;;;;;;12.23;6.88;;;;;;;;;;5014331;28;20545;-71
2021/07/26 11:06:43;;;;;;;24.80;6.90;;;;;;;;;;5001322;28;20037;-72
2021/07/26 11:09:34;;;;;;;15.70;7.18;;;;;;;;;;5014838;28;20022;-73
2021/07/26 11:12:02;;;;;;;16.13;6.55;;;;;;;;;;4996170;28;20044;-73
2021/07/26 11:14:28;;;;;;;11.47;6.57;;;;;;;;;;4996953;28;20030;-72
2021/07/26 11:17:02;;;;;;;11.88;6.55;;;;;;;;;;5014765;28;20256;-73
2021/07/26 11:19:35;;;;;;;13.05;6.85;;;;;;;;;;5012997;28;20026;-73
2021/07/26 11:22:01;;;;;;;14.70;6.90;;;;;;;;;;5012509;28;20099;-70
2021/07/26 11:24:45;;;;;;;13.18;7.10;;;;;;;;;;5014167;28;20018;-70
2021/07/26 11:27:12;;;;;;;15.07;6.88;;;;;;;;;;5013756;28;20017;-69
2021/07/26 11:29:37;;;;;;;8.10;6.13;;;;;;;;;;5014824;28;20025;-71
2021/07/26 11:32:04;;;;;;;11.13;7.05;;;;;;;;;;5014176;28;20026;-70
2021/07/26 11:34:33;;;;;;;14.52;6.80;;;;;;;;;;5013747;28;20087;-69
2021/07/26 11:37:04;;;;;;;9.05;6.38;;;;;;;;;;4996715;28;20454;-68
2021/07/26 11:39:49;;;;;;;11.50;6.03;;;;;;;;;;5013405;28;20100;-69
2021/07/26 11:42:18;;;;;;;16.13;6.55;;;;;;;;;;4993902;28;20076;-70
2021/07/26 11:44:47;;;;;;;13.05;6.45;;;;;;;;;;5012243;28;20029;-68
2021/07/26 11:47:14;;;;;;;14.15;6.25;;;;;;;;;;5011404;28;20030;-68
2021/07/26 11:49:51;;;;;;;15.15;6.47;;;;;;;;;;5012287;28;20029;-66
2021/07/26 11:52:17;;;;;;;11.38;6.28;;;;;;;;;;5011698;28;20047;-67
2021/07/26 11:54:43;;;;;;;10.73;6.32;;;;;;;;;;5013600;28;20026;-67
2021/07/26 11:57:09;;;;;;;12.23;6.03;;;;;;;;;;5013390;28;20021;-67
2021/07/26 11:59:36;;;;;;;16.63;7.55;;;;;;;;;;5014266;28;20049;-70
2021/07/26 12:02:07;;;;;;;13.60;5.85;;;;;;;;;;5014184;28;20017;-68
2021/07/26 12:04:37;;;;;;;14.90;6.03;;;;;;;;;;4995648;28;20395;-69
2021/07/26 12:07:04;;;;;;;21.80;6.28;;;;;;;;;;5013203;28;20502;-69
2021/07/26 12:09:29;;;;;;;17.23;6.32;;;;;;;;;;5013843;28;20018;-68
2021/07/26 12:11:56;;;;;;;12.98;5.70;;;;;;;;;;5013745;28;20026;-70
2021/07/26 12:14:29;;;;;;;13.43;6.43;;;;;;;;;;5013304;28;20564;-69
2021/07/26 12:17:05;;;;;;;12.20;6.10;;;;;;;;;;5013406;28;20025;-69
2021/07/26 12:19:31;;;;;;;17.88;5.70;;;;;;;;;;5013624;28;20105;-68
2021/07/26 12:21:59;;;;;;;12.65;6.60;;;;;;;;;;5013933;28;20021;-69
2021/07/26 12:24:43;;;;;;;20.65;6.63;;;;;;;;;;5012687;28;20033;-68
2021/07/26 12:27:09;;;;;;;15.60;6.30;;;;;;;;;;5012899;28;20026;-68
2021/07/26 12:29:34;;;;;;;13.23;6.65;;;;;;;;;;5013668;28;20018;-68
2021/07/26 12:32:03;;;;;;;14.98;6.60;;;;;;;;;;5012842;28;20121;-70
2021/07/26 12:34:29;;;;;;;15.57;7.53;;;;;;;;;;5012044;28;20386;-67
2021/07/26 12:36:57;;;;;;;11.50;6.47;;;;;;;;;;5011916;28;20022;-69
2021/07/26 12:39:34;;;;;;;13.93;6.22;;;;;;;;;;5010454;28;20117;-72
2021/07/26 12:42:19;;;;;;;18.10;6.60;;;;;;;;;;5010985;28;20537;-70
2021/07/26 12:44:44;;;;;;;12.95;6.70;;;;;;;;;;5009694;28;20026;-71
2021/07/26 12:47:35;;;;;;;18.80;7.20;;;;;;;;;;5011941;28;20025;-69
2021/07/26 12:50:01;;;;;;;13.82;6.20;;;;;;;;;;5006090;28;20021;-70
2021/07/26 12:52:26;;;;;;;18.08;6.28;;;;;;;;;;5002690;28;20022;-70
2021/07/26 12:54:53;;;;;;;10.23;6.03;;;;;;;;;;5012875;28;20033;-70
2021/07/26 12:57:19;;;;;;;16.05;5.57;;;;;;;;;;5004138;28;20444;-72
2021/07/26 12:59:44;;;;;;;20.80;5.55;;;;;;;;;;5003847;28;20045;-71
2021/07/26 13:02:10;;;;;;;17.65;6.47;;;;;;;;;;5012206;28;20029;-69
2021/07/26 13:04:35;;;;;;;12.48;5.35;;;;;;;;;;5012130;28;20488;-70
2021/07/26 13:07:00;;;;;;;18.42;6.38;;;;;;;;;;5007444;28;20018;-72
2021/07/26 13:09:26;;;;;;;10.88;5.72;;;;;;;;;;5003930;28;20018;-71
2021/07/26 13:11:51;;;;;;;16.08;6.85;;;;;;;;;;5008826;28;20018;-71
2021/07/26 13:14:17;;;;;;;19.42;6.78;;;;;;;;;;5001588;28;20053;-70
2021/07/26 13:16:42;;;;;;;27.80;7.18;;;;;;;;;;5003067;28;20030;-71
2021/07/26 13:19:07;;;;;;;12.85;7.03;;;;;;;;;;5005303;28;20068;-70
2021/07/26 13:21:33;;;;;;;15.10;6.95;;;;;;;;;;5004216;28;20022;-70
2021/07/26 13:23:58;;;;;;;16.35;6.65;;;;;;;;;;5010710;28;20027;-71
2021/07/26 13:26:24;;;;;;;12.80;6.40;;;;;;;;;;5008567;28;20617;-74
2021/07/26 13:28:49;;;;;;;19.70;6.40;;;;;;;;;;5008769;28;20546;-75
2021/07/26 13:31:14;;;;;;;16.50;6.40;;;;;;;;;;4991723;28;20026;-75
2021/07/26 13:33:40;;;;;;;16.23;6.38;;;;;;;;;;5012544;28;20394;-73
2021/07/26 13:36:06;;;;;;;15.75;7.28;;;;;;;;;;5008319;28;20022;-75
2021/07/26 13:38:31;;;;;;;14.35;6.13;;;;;;;;;;5002932;28;20038;-76
2021/07/26 13:40:57;;;;;;;16.40;6.55;;;;;;;;;;4991628;28;20517;-74
2021/07/26 13:43:22;;;;;;;12.93;6.57;;;;;;;;;;5012158;28;20556;-75
2021/07/26 13:45:47;;;;;;;13.68;7.53;;;;;;;;;;5011076;28;20022;-75
2021/07/26 13:48:13;;;;;;;18.83;7.25;;;;;;;;;;5012547;28;20022;-75
2021/07/26 13:50:38;;;;;;;16.17;6.75;;;;;;;;;;5010479;28;20104;-71
2021/07/26 13:53:05;;;;;;;15.57;6.82;;;;;;;;;;5002272;28;20068;-71
2021/07/26 13:55:31;;;;;;;15.60;6.95;;;;;;;;;;5006683;28;20018;-71
2021/07/26 13:57:56;;;;;;;14.32;7.25;;;;;;;;;;5007288;28;20028;-70
2021/07/26 14:00:22;;;;;;;25.33;7.55;;;;;;;;;;5006308;28;20104;-75
2021/07/26 14:02:48;;;;;;;13.43;6.93;;;;;;;;;;5009154;28;20557;-74
2021/07/26 14:05:13;;;;;;;15.27;6.53;;;;;;;;;;5002365;28;20014;-74
2021/07/26 14:07:39;;;;;;;16.35;7.03;;;;;;;;;;4994520;28;20535;-76
2021/07/26 14:10:05;;;;;;;13.18;7.15;;;;;;;;;;5010259;28;20096;-74
2021/07/26 14:12:30;;;;;;;18.30;6.97;;;;;;;;;;5008974;28;20085;-72
2021/07/26 14:14:55;;;;;;;16.23;7.35;;;;;;;;;;5010923;28;20482;-73
2021/07/26 14:17:21;;;;;;;14.32;6.90;;;;;;;;;;5009630;28;20084;-76
2021/07/26 14:19:48;;;;;;;19.58;7.32;;;;;;;;;;5009844;28;20497;-71
2021/07/26 14:22:16;;;;;;;15.45;6.78;;;;;;;;;;5011635;28;20490;-73
2021/07/26 14:24:42;;;;;;;12.95;6.47;;;;;;;;;;4999730;28;20022;-71
2021/07/26 14:27:07;;;;;;;27.05;8.10;;;;;;;;;;5009607;28;20387;-70
2021/07/26 14:29:33;;;;;;;20.33;7.45;;;;;;;;;;4990467;28;20033;-69
2021/07/26 14:31:58;;;;;;;17.77;7.00;;;;;;;;;;5009934;28;20014;-71
2021/07/26 14:34:24;;;;;;;17.55;7.28;;;;;;;;;;5010258;28;20037;-69
2021/07/26 14:36:53;;;;;;;19.08;7.55;;;;;;;;;;5011907;28;20568;-71
2021/07/26 14:39:19;;;;;;;15.60;7.57;;;;;;;;;;5010509;28;20033;-69
2021/07/26 14:41:44;;;;;;;43.30;9.15;;;;;;;;;;5012113;28;20022;-69